Terminal Aerodrome Forecast
Issued by NWS Mt. Holly, NJ

Home | Current Version | Previous Version | Text Only | Print | Product List | Glossary On
Versions: 1 2 3 4 5 6 7 8 9 10 11 12 13 14 15 16 17 18 19 20 21 22 23 24 25
000
FTUS41 KPHI 211300 AAA
TAFPHL
TAF AMD
KPHL 211307Z 2113/2218 15005KT P6SM SCT015 BKN050 OVC120
      TEMPO 2113/2115 BKN015
     FM211500 19006KT P6SM SCT050
     FM211800 19006KT P6SM VCSH SCT040 BKN100
     FM212100 17006KT P6SM -SHRA BKN040 BKN100
     FM220000 15007KT 6SM SHRA SCT025 BKN040
      TEMPO 2202/2205 5SM SHRA BKN025
     FM220800 10004KT 5SM BR BKN035
     FM221300 10005KT P6SM SCT035 BKN150=

USA.gov is the U.S. government's official web portal to all federal, state and local government web resources and services.